createdAt,value
2023-02-01T00:00:00.103Z,89.52
2023-02-01T00:02:33.191Z,89.98
2023-02-01T00:05:03.580Z,89.83
2023-02-01T00:07:33.940Z,89.97
2023-02-01T00:10:04.631Z,89.61
2023-02-01T00:12:35.503Z,88.51
2023-02-01T00:15:06.294Z,89.12
2023-02-01T00:17:39.355Z,88.64
2023-02-01T00:20:11.920Z,88.75
2023-02-01T00:22:42.283Z,88.21
2023-02-01T00:25:13.146Z,87.46
2023-02-01T00:27:43.544Z,87.04
2023-02-01T00:30:16.244Z,86.28
2023-02-01T00:32:49.230Z,86.63
2023-02-01T00:35:19.787Z,85.38
2023-02-01T00:37:50.211Z,85.06
2023-02-01T00:40:21.146Z,85.35
2023-02-01T00:42:51.421Z,83.49
2023-02-01T00:45:21.871Z,83.08
2023-02-01T00:47:54.976Z,83.25
2023-02-01T00:50:25.373Z,83.44
2023-02-01T00:52:55.719Z,83.38
2023-02-01T00:55:26.127Z,83.41
2023-02-01T00:57:56.429Z,83.47
2023-02-01T01:00:27.161Z,83.58
2023-02-01T01:03:00.188Z,83.89
2023-02-01T01:05:31.460Z,83.98
2023-02-01T01:08:01.536Z,83.59
2023-02-01T01:10:31.853Z,82.89
2023-02-01T01:13:02.145Z,82.37
2023-02-01T01:15:32.602Z,82.02
2023-02-01T01:18:05.831Z,82.14
2023-02-01T01:20:38.817Z,81.89
2023-02-01T01:23:10.125Z,81.29
2023-02-01T01:25:41.922Z,81.34
2023-02-01T01:28:12.284Z,81.46
2023-02-01T01:30:42.625Z,81.03
2023-02-01T01:33:15.595Z,80.66
2023-02-01T01:35:46.384Z,80.54
2023-02-01T01:38:16.934Z,80.24
2023-02-01T01:40:50.824Z,79.07
2023-02-01T01:43:23.744Z,79.10
2023-02-01T01:45:56.010Z,78.73
2023-02-01T01:48:32.093Z,78.72
2023-02-01T01:51:09.447Z,78.33
2023-02-01T01:53:47.183Z,77.96
2023-02-01T01:56:18.051Z,77.26
2023-02-01T01:58:48.899Z,77.53
2023-02-01T02:01:19.515Z,77.19
2023-02-01T02:03:54.354Z,76.66
2023-02-01T02:06:37.563Z,76.28
2023-02-01T02:09:08.782Z,76.53
2023-02-01T02:11:39.436Z,75.81
2023-02-01T02:14:13.871Z,75.37
2023-02-01T02:17:18.594Z,75.60
2023-02-01T02:20:49.713Z,74.87
2023-02-01T02:24:06.219Z,75.11
2023-02-01T02:26:54.784Z,75.43
2023-02-01T02:30:14.075Z,75.72
2023-02-01T02:33:25.371Z,75.61
2023-02-01T02:36:04.973Z,75.75
2023-02-01T02:38:43.553Z,75.54
2023-02-01T02:41:41.980Z,75.33
2023-02-01T02:44:33.492Z,75.51
2023-02-01T02:47:21.222Z,75.41
2023-02-01T02:50:09.956Z,74.99
2023-02-01T02:53:02.237Z,74.98
2023-02-01T02:55:34.827Z,74.50
2023-02-01T02:58:19.217Z,74.19
2023-02-01T03:01:02.962Z,74.16
2023-02-01T03:03:45.742Z,73.85
2023-02-01T03:06:19.809Z,73.58
2023-02-01T03:08:58.010Z,73.38
2023-02-01T03:11:51.395Z,73.54
2023-02-01T03:14:22.665Z,73.69
2023-02-01T03:16:55.530Z,73.98
2023-02-01T03:19:29.872Z,74.37
2023-02-01T03:22:05.230Z,74.44
2023-02-01T03:24:44.200Z,74.98
2023-02-01T03:27:21.393Z,75.07
2023-02-01T03:29:59.071Z,75.60
2023-02-01T03:32:29.795Z,75.53
2023-02-01T03:35:00.776Z,75.69
2023-02-01T03:37:32.616Z,75.63
2023-02-01T03:40:12.657Z,75.50
2023-02-01T03:42:47.833Z,75.88
2023-02-01T03:45:26.466Z,76.35
2023-02-01T03:48:01.331Z,75.94
2023-02-01T03:50:34.953Z,75.85
2023-02-01T03:53:10.693Z,75.74
2023-02-01T03:55:43.835Z,76.02
2023-02-01T03:58:18.339Z,75.73
2023-02-01T04:00:54.327Z,75.58
2023-02-01T04:03:26.035Z,76.09
2023-02-01T04:05:57.220Z,76.00
2023-02-01T04:08:30.964Z,75.87
2023-02-01T04:11:03.828Z,75.90
2023-02-01T04:13:34.123Z,75.22
2023-02-01T04:16:04.644Z,74.97
2023-02-01T04:18:34.948Z,75.23
2023-02-01T04:21:05.716Z,74.98
2023-02-01T04:23:37.342Z,74.89
2023-02-01T04:26:10.432Z,74.79
2023-02-01T04:28:40.748Z,74.41
2023-02-01T04:31:11.161Z,74.11
2023-02-01T04:33:41.603Z,73.93
2023-02-01T04:36:12.345Z,73.94
2023-02-01T04:38:42.736Z,74.27
2023-02-01T04:41:15.585Z,74.16
2023-02-01T04:43:45.953Z,74.17
2023-02-01T04:46:16.341Z,73.99
2023-02-01T04:48:46.949Z,74.19
2023-02-01T04:51:19.159Z,73.70
2023-02-01T04:53:50.053Z,73.77
2023-02-01T04:56:23.118Z,73.83
2023-02-01T04:58:53.541Z,73.94
2023-02-01T05:01:25.567Z,73.87
2023-02-01T05:03:55.936Z,73.82
2023-02-01T05:06:26.528Z,73.67
2023-02-01T05:08:56.958Z,73.76
2023-02-01T05:11:42.223Z,73.84
2023-02-01T05:14:12.490Z,74.35
2023-02-01T05:16:42.793Z,74.56
2023-02-01T05:19:13.442Z,74.57
2023-02-01T05:21:44.052Z,75.34
2023-02-01T05:24:15.910Z,75.58
2023-02-01T05:26:49.006Z,75.67
2023-02-01T05:29:21.471Z,76.33
2023-02-01T05:31:52.609Z,76.32
2023-02-01T05:34:23.122Z,76.48
2023-02-01T05:36:53.415Z,76.64
2023-02-01T05:39:23.843Z,77.27
2023-02-01T05:41:56.797Z,77.56
2023-02-01T05:44:27.167Z,77.73
2023-02-01T05:46:57.508Z,78.19
2023-02-01T05:49:27.885Z,78.09
2023-02-01T05:52:00.280Z,78.18
2023-02-01T05:54:31.300Z,78.45
2023-02-01T05:57:04.320Z,78.80
2023-02-01T05:59:34.623Z,78.91
2023-02-01T06:02:04.924Z,79.28
2023-02-01T06:04:35.215Z,79.43
2023-02-01T06:07:08.769Z,79.51
2023-02-01T06:09:39.534Z,80.15
2023-02-01T06:12:13.389Z,80.13
2023-02-01T06:14:44.435Z,80.52
2023-02-01T06:17:15.083Z,80.47
2023-02-01T06:19:46.050Z,80.13
2023-02-01T06:22:16.840Z,80.32
2023-02-01T06:24:47.641Z,80.77
2023-02-01T06:27:20.653Z,81.04
2023-02-01T06:29:50.958Z,81.60
2023-02-01T06:32:24.070Z,81.42
2023-02-01T06:34:54.157Z,81.82
2023-02-01T06:37:25.979Z,81.81
2023-02-01T06:39:56.382Z,82.27
2023-02-01T06:42:29.427Z,82.62
2023-02-01T06:44:59.692Z,82.56
2023-02-01T06:47:30.220Z,83.06
2023-02-01T06:50:00.513Z,83.46
2023-02-01T06:52:30.890Z,83.40
2023-02-01T06:55:01.206Z,83.90
2023-02-01T06:57:35.421Z,83.83
2023-02-01T07:00:07.701Z,83.85
2023-02-01T07:02:39.256Z,83.56
2023-02-01T07:05:10.453Z,83.57
2023-02-01T07:07:40.519Z,83.30
2023-02-01T07:10:12.529Z,83.45
2023-02-01T07:12:45.729Z,83.37
2023-02-01T07:15:16.025Z,83.07
2023-02-01T07:17:47.908Z,82.49
2023-02-01T07:20:18.374Z,81.93
2023-02-01T07:22:48.721Z,81.78
2023-02-01T07:25:19.297Z,81.58
2023-02-01T07:27:52.425Z,81.02
2023-02-01T07:30:23.313Z,80.68
2023-02-01T07:32:53.925Z,80.12
2023-02-01T07:35:24.584Z,79.74
2023-02-01T07:37:54.948Z,79.10
2023-02-01T07:40:29.827Z,78.87
2023-02-01T07:43:02.791Z,78.57
2023-02-01T07:45:35.245Z,77.90
2023-02-01T07:48:08.333Z,77.66
2023-02-01T07:50:38.677Z,77.40
2023-02-01T07:53:08.988Z,77.14
2023-02-01T07:55:42.001Z,77.26
2023-02-01T07:58:14.891Z,76.94
2023-02-01T08:00:57.361Z,77.09
2023-02-01T08:03:27.750Z,77.08
2023-02-01T08:05:58.785Z,76.71
2023-02-01T08:08:29.287Z,76.31
2023-02-01T08:11:02.303Z,76.31
2023-02-01T08:13:35.397Z,76.21
2023-02-01T08:16:09.102Z,75.88
2023-02-01T08:18:40.100Z,74.97
2023-02-01T08:21:14.004Z,74.78
2023-02-01T08:23:45.934Z,74.05
2023-02-01T08:26:19.567Z,73.61
2023-02-01T08:28:55.495Z,73.54
2023-02-01T08:31:28.890Z,73.32
2023-02-01T08:34:02.740Z,72.90
2023-02-01T08:36:35.061Z,72.13
2023-02-01T08:39:10.011Z,71.80
2023-02-01T08:41:41.025Z,70.92
2023-02-01T08:44:13.991Z,70.79
2023-02-01T08:46:44.373Z,69.95
2023-02-01T08:49:14.708Z,69.83
2023-02-01T08:51:44.952Z,69.31
2023-02-01T08:54:15.291Z,69.80
2023-02-01T08:56:45.660Z,70.51
2023-02-01T08:59:18.605Z,72.04
2023-02-01T09:01:48.931Z,73.17
2023-02-01T09:04:19.372Z,72.63
2023-02-01T09:06:49.805Z,73.22
2023-02-01T09:09:20.136Z,76.09
2023-02-01T09:11:51.286Z,79.48
2023-02-01T09:14:24.508Z,82.29
2023-02-01T09:16:54.956Z,84.49
2023-02-01T09:19:27.108Z,88.15
2023-02-01T09:21:57.912Z,89.55
2023-02-01T09:24:28.718Z,90.00
2023-02-01T09:26:59.265Z,90.43
2023-02-01T09:29:32.815Z,91.36
2023-02-01T09:32:04.613Z,92.02
2023-02-01T09:34:35.671Z,91.69
2023-02-01T09:37:06.275Z,92.32
2023-02-01T09:39:36.680Z,92.13
2023-02-01T09:42:22.931Z,91.49
2023-02-01T09:45:13.963Z,92.69
2023-02-01T09:47:51.951Z,92.24
2023-02-01T09:50:26.530Z,92.58
2023-02-01T09:53:04.589Z,91.94
2023-02-01T09:55:42.364Z,90.65
2023-02-01T09:58:20.690Z,89.98
2023-02-01T10:00:57.989Z,88.55
2023-02-01T10:03:34.501Z,86.50
2023-02-01T10:06:31.051Z,85.31
2023-02-01T10:09:31.990Z,85.04
2023-02-01T10:12:36.884Z,84.65
2023-02-01T10:15:23.340Z,84.49
2023-02-01T10:18:12.205Z,83.91
2023-02-01T10:20:57.172Z,82.37
2023-02-01T10:24:16.857Z,82.98
2023-02-01T10:26:53.767Z,83.08
2023-02-01T10:29:29.819Z,81.86
2023-02-01T10:32:00.603Z,81.27
2023-02-01T10:34:37.811Z,81.37
2023-02-01T10:37:28.445Z,82.10
2023-02-01T10:40:00.666Z,80.66
2023-02-01T10:42:32.952Z,79.40
2023-02-01T10:45:08.313Z,79.87
2023-02-01T10:47:38.588Z,77.70
2023-02-01T10:50:23.646Z,76.43
2023-02-01T10:52:59.266Z,75.25
2023-02-01T10:55:41.385Z,74.16
2023-02-01T10:58:21.401Z,72.19
2023-02-01T11:00:57.443Z,72.43
2023-02-01T11:03:43.520Z,70.48
2023-02-01T11:06:26.344Z,69.39
2023-02-01T11:08:59.605Z,68.38
2023-02-01T11:11:30.413Z,68.40
2023-02-01T11:14:04.392Z,68.09
2023-02-01T11:16:43.094Z,68.41
2023-02-01T11:19:19.775Z,67.89
2023-02-01T11:21:55.175Z,67.70
2023-02-01T11:24:29.787Z,66.88
2023-02-01T11:27:04.666Z,66.01
2023-02-01T11:29:43.237Z,66.29
2023-02-01T11:32:17.159Z,66.22
2023-02-01T11:34:51.975Z,66.49
2023-02-01T11:37:30.491Z,66.18
2023-02-01T11:40:03.136Z,66.20
2023-02-01T11:42:34.195Z,66.21
2023-02-01T11:45:25.072Z,66.78
2023-02-01T11:47:58.761Z,66.78
2023-02-01T11:50:39.300Z,66.63
2023-02-01T11:53:32.337Z,66.15
2023-02-01T11:56:18.974Z,65.76
2023-02-01T11:59:10.417Z,65.50
2023-02-01T12:02:01.653Z,64.92
2023-02-01T12:05:09.952Z,64.73
2023-02-01T12:08:02.612Z,65.15
2023-02-01T12:10:50.255Z,65.03
2023-02-01T12:13:40.421Z,65.22
2023-02-01T12:16:26.643Z,64.30
2023-02-01T12:19:22.054Z,64.77
2023-02-01T12:22:09.860Z,64.51
2023-02-01T12:25:19.922Z,64.89
2023-02-01T12:28:18.839Z,64.99
2023-02-01T12:31:24.931Z,65.25
2023-02-01T12:34:26.217Z,64.65
2023-02-01T12:37:07.834Z,64.19
2023-02-01T12:39:46.696Z,64.85
2023-02-01T12:42:24.169Z,63.42
2023-02-01T12:45:05.576Z,63.30
2023-02-01T12:47:44.208Z,63.22
2023-02-01T12:50:23.279Z,62.91
2023-02-01T12:52:56.284Z,63.18
2023-02-01T12:55:35.148Z,62.50
2023-02-01T12:58:17.782Z,62.26
2023-02-01T13:00:57.092Z,61.87
2023-02-01T13:03:40.398Z,61.50
2023-02-01T13:06:17.964Z,61.28
2023-02-01T13:08:52.627Z,61.18
2023-02-01T13:11:30.278Z,60.11
2023-02-01T13:14:09.553Z,60.36
2023-02-01T13:16:48.177Z,60.71
2023-02-01T13:19:27.503Z,60.88
2023-02-01T13:22:03.042Z,60.33
2023-02-01T13:24:40.309Z,60.73
2023-02-01T13:27:14.362Z,60.29
2023-02-01T13:29:55.010Z,60.57
2023-02-01T13:33:53.355Z,60.93
2023-02-01T13:36:29.130Z,60.66
2023-02-01T13:39:44.416Z,60.67
2023-02-01T13:42:23.154Z,61.36
2023-02-01T13:44:56.997Z,61.34
2023-02-01T13:47:35.845Z,61.14
2023-02-01T13:50:17.288Z,60.54
2023-02-01T13:52:49.865Z,61.61
2023-02-01T13:55:36.123Z,61.30
2023-02-01T13:58:17.759Z,61.46
2023-02-01T14:00:48.509Z,61.34
2023-02-01T14:03:26.294Z,61.25
2023-02-01T14:06:21.070Z,61.34
2023-02-01T14:09:18.383Z,61.99
2023-02-01T14:11:52.261Z,61.50
2023-02-01T14:14:56.516Z,62.29
2023-02-01T14:17:39.137Z,62.36
2023-02-01T14:20:54.416Z,62.65
2023-02-01T14:23:29.062Z,62.76
2023-02-01T14:26:14.073Z,63.10
2023-02-01T14:29:10.457Z,62.79
2023-02-01T14:31:55.570Z,63.04
2023-02-01T14:34:35.915Z,62.92
2023-02-01T14:37:11.443Z,63.68
2023-02-01T14:39:58.017Z,64.12
2023-02-01T14:42:37.546Z,64.52
2023-02-01T14:45:51.747Z,65.30
2023-02-01T14:48:49.306Z,65.84
2023-02-01T14:51:21.810Z,66.20
2023-02-01T14:53:55.306Z,66.32
2023-02-01T14:56:26.457Z,66.20
2023-02-01T14:59:06.781Z,66.32
2023-02-01T15:01:40.147Z,66.39
2023-02-01T15:04:16.132Z,66.87
2023-02-01T15:06:50.086Z,67.06
2023-02-01T15:09:30.898Z,67.09
2023-02-01T15:12:05.356Z,67.24
2023-02-01T15:14:39.082Z,67.99
2023-02-01T15:17:24.704Z,67.87
2023-02-01T15:19:58.584Z,68.13
2023-02-01T15:22:30.614Z,68.48
2023-02-01T15:25:04.763Z,69.01
2023-02-01T15:27:37.092Z,69.09
2023-02-01T15:30:12.041Z,69.54
2023-02-01T15:32:44.248Z,69.85
2023-02-01T15:35:47.753Z,69.88
2023-02-01T15:38:44.877Z,70.32
2023-02-01T15:41:21.664Z,71.15
2023-02-01T15:44:09.441Z,71.53
2023-02-01T15:46:43.675Z,71.64
2023-02-01T15:49:27.291Z,72.40
2023-02-01T15:51:59.207Z,72.37
2023-02-01T15:54:33.327Z,72.68
2023-02-01T15:57:07.814Z,72.35
2023-02-01T15:59:45.657Z,71.79
2023-02-01T16:02:33.596Z,71.01
2023-02-01T16:05:04.693Z,70.72
2023-02-01T16:07:38.181Z,69.12
2023-02-01T16:10:30.114Z,68.87
2023-02-01T16:13:03.105Z,68.48
2023-02-01T16:15:33.541Z,67.71
2023-02-01T16:18:03.881Z,67.03
2023-02-01T16:20:36.320Z,66.85
2023-02-01T16:23:07.673Z,66.50
2023-02-01T16:25:38.748Z,66.36
2023-02-01T16:28:12.079Z,66.58
2023-02-01T16:30:42.952Z,65.82
2023-02-01T16:33:21.807Z,65.42
2023-02-01T16:35:53.376Z,65.37
2023-02-01T16:38:25.123Z,65.42
2023-02-01T16:40:55.424Z,65.94
2023-02-01T16:43:30.555Z,66.46
2023-02-01T16:46:06.387Z,67.60
2023-02-01T16:48:39.906Z,67.80
2023-02-01T16:51:15.557Z,68.18
2023-02-01T16:53:54.283Z,68.45
2023-02-01T16:56:28.005Z,70.75
2023-02-01T16:59:01.290Z,72.78
2023-02-01T17:01:31.860Z,77.49
2023-02-01T17:04:03.535Z,80.38
2023-02-01T17:06:34.611Z,83.98
2023-02-01T17:09:05.476Z,87.92
2023-02-01T17:11:36.139Z,92.75
2023-02-01T17:14:19.100Z,96.08
2023-02-01T17:16:51.796Z,99.90
2023-02-01T17:19:26.367Z,100.00
2023-02-01T17:21:59.988Z,100.00
2023-02-01T17:24:46.827Z,100.00
2023-02-01T17:27:20.233Z,100.00
2023-02-01T17:29:54.019Z,100.00
2023-02-01T17:32:27.767Z,100.00
2023-02-01T17:34:59.538Z,100.00
2023-02-01T17:37:33.536Z,100.00
2023-02-01T17:40:04.601Z,100.00
2023-02-01T17:42:36.767Z,100.00
2023-02-01T17:45:27.271Z,100.00
2023-02-01T17:47:58.415Z,100.00
2023-02-01T17:50:31.777Z,100.00
2023-02-01T17:53:03.200Z,100.00
2023-02-01T17:55:35.523Z,100.00
2023-02-01T17:58:05.944Z,100.00
2023-02-01T18:00:39.224Z,100.00
2023-02-01T18:03:10.115Z,100.00
2023-02-01T18:05:50.986Z,100.00
2023-02-01T18:08:21.842Z,100.00
2023-02-01T18:10:54.956Z,100.00
2023-02-01T18:13:25.837Z,100.00
2023-02-01T18:16:00.028Z,100.00
2023-02-01T18:18:31.370Z,100.00
2023-02-01T18:21:01.645Z,100.00
2023-02-01T18:23:32.016Z,100.00
2023-02-01T18:26:02.327Z,100.00
2023-02-01T18:28:32.792Z,100.00
2023-02-01T18:31:08.105Z,100.00
2023-02-01T18:33:38.486Z,100.00
2023-02-01T18:36:09.669Z,100.00
2023-02-01T18:38:39.812Z,100.00
2023-02-01T18:41:14.249Z,100.00
2023-02-01T18:43:45.332Z,100.00
2023-02-01T18:46:19.379Z,100.00
2023-02-01T18:48:49.769Z,100.00
2023-02-01T18:51:23.805Z,100.00
2023-02-01T18:53:54.601Z,100.00
2023-02-01T18:56:25.006Z,100.00
2023-02-01T18:58:55.560Z,100.00
2023-02-01T19:01:28.828Z,100.00
2023-02-01T19:04:03.470Z,100.00
2023-02-01T19:06:41.527Z,100.00
2023-02-01T19:09:11.858Z,100.00
2023-02-01T19:11:44.380Z,100.00
2023-02-01T19:14:14.685Z,100.00
2023-02-01T19:16:47.778Z,100.00
2023-02-01T19:19:18.089Z,100.00
2023-02-01T19:21:48.432Z,100.00
2023-02-01T19:24:18.867Z,100.00
2023-02-01T19:26:50.347Z,100.00
2023-02-01T19:29:20.841Z,100.00
2023-02-01T19:31:53.920Z,100.00
2023-02-01T19:34:24.435Z,100.00
2023-02-01T19:36:55.244Z,100.00
2023-02-01T19:39:25.644Z,100.00
2023-02-01T19:41:56.104Z,100.00
2023-02-01T19:44:28.279Z,100.00
2023-02-01T19:47:01.162Z,100.00
2023-02-01T19:49:31.503Z,100.00
2023-02-01T19:52:01.937Z,100.00
2023-02-01T19:54:41.053Z,100.00
2023-02-01T19:57:11.454Z,100.00
2023-02-01T19:59:41.995Z,100.00
2023-02-01T20:02:16.675Z,100.00
2023-02-01T20:04:47.018Z,100.00
2023-02-01T20:07:17.309Z,100.00
2023-02-01T20:09:47.590Z,100.00
2023-02-01T20:12:18.949Z,100.00
2023-02-01T20:14:49.712Z,100.00
2023-02-01T20:17:22.773Z,100.00
2023-02-01T20:19:53.236Z,100.00
2023-02-01T20:22:23.559Z,100.00
2023-02-01T20:24:54.005Z,100.00
2023-02-01T20:27:25.266Z,100.00
2023-02-01T20:29:55.647Z,100.00
2023-02-01T20:32:28.787Z,100.00
2023-02-01T20:34:59.033Z,100.00
2023-02-01T20:37:29.399Z,100.00
2023-02-01T20:39:59.850Z,100.00
2023-02-01T20:42:30.217Z,100.00
2023-02-01T20:45:00.545Z,100.00
2023-02-01T20:47:33.732Z,100.00
2023-02-01T20:50:04.268Z,100.00
2023-02-01T20:52:34.851Z,100.00
2023-02-01T20:55:05.294Z,100.00
2023-02-01T20:57:36.713Z,100.00
2023-02-01T21:00:10.801Z,100.00
2023-02-01T21:02:43.735Z,100.00
2023-02-01T21:05:14.395Z,100.00
2023-02-01T21:07:45.072Z,100.00
2023-02-01T21:10:15.725Z,100.00
2023-02-01T21:12:46.161Z,100.00
2023-02-01T21:15:16.928Z,100.00
2023-02-01T21:17:50.367Z,100.00
2023-02-01T21:20:21.815Z,100.00
2023-02-01T21:22:52.283Z,100.00
2023-02-01T21:25:23.051Z,100.00
2023-02-01T21:27:53.596Z,100.00
2023-02-01T21:30:24.827Z,100.00
2023-02-01T21:32:59.604Z,100.00
2023-02-01T21:35:30.302Z,100.00
2023-02-01T21:38:00.711Z,100.00
2023-02-01T21:40:30.960Z,100.00
2023-02-01T21:43:01.340Z,100.00
2023-02-01T21:45:31.747Z,100.00
2023-02-01T21:48:04.993Z,100.00
2023-02-01T21:50:35.700Z,100.00
2023-02-01T21:53:07.007Z,100.00
2023-02-01T21:55:37.125Z,100.00
2023-02-01T21:58:12.725Z,100.00
2023-02-01T22:00:45.811Z,99.99
2023-02-01T22:03:18.906Z,99.68
2023-02-01T22:05:53.509Z,100.00
2023-02-01T22:08:23.828Z,99.82
2023-02-01T22:10:54.190Z,100.00
2023-02-01T22:13:24.619Z,100.00
2023-02-01T22:15:55.061Z,100.00
2023-02-01T22:18:28.445Z,100.00
2023-02-01T22:21:03.312Z,100.00
2023-02-01T22:23:33.766Z,100.00
2023-02-01T22:26:09.164Z,100.00
2023-02-01T22:28:39.840Z,100.00
2023-02-01T22:31:12.564Z,100.00
2023-02-01T22:33:45.550Z,100.00
2023-02-01T22:36:17.812Z,99.41
2023-02-01T22:38:49.654Z,99.77
2023-02-01T22:41:20.826Z,98.63
2023-02-01T22:43:51.207Z,99.01
2023-02-01T22:46:25.512Z,98.46
2023-02-01T22:48:58.994Z,97.70
2023-02-01T22:51:31.869Z,96.88
2023-02-01T22:54:02.745Z,97.45
2023-02-01T22:56:36.716Z,95.75
2023-02-01T22:59:10.498Z,95.98
2023-02-01T23:01:40.925Z,97.02
2023-02-01T23:04:16.803Z,96.81
2023-02-01T23:06:47.701Z,97.08
2023-02-01T23:09:21.655Z,97.22
2023-02-01T23:11:52.702Z,97.31
2023-02-01T23:14:23.374Z,97.14
2023-02-01T23:16:53.917Z,97.46
2023-02-01T23:19:27.060Z,97.01
2023-02-01T23:21:57.410Z,97.13
2023-02-01T23:24:27.963Z,97.20
2023-02-01T23:26:58.311Z,96.64
2023-02-01T23:29:28.583Z,97.46
2023-02-01T23:31:59.036Z,97.58
2023-02-01T23:34:32.074Z,97.64
2023-02-01T23:37:02.431Z,97.91
2023-02-01T23:39:33.280Z,98.29
2023-02-01T23:42:04.931Z,98.29
2023-02-01T23:44:35.653Z,97.82
2023-02-01T23:47:06.060Z,98.68
2023-02-01T23:49:39.082Z,98.83
2023-02-01T23:52:10.164Z,98.98
2023-02-01T23:54:40.544Z,98.05
2023-02-01T23:57:11.096Z,97.88
2023-02-01T23:59:42.623Z,97.65
